Tonic Sea — D5AZ8 — position and weather

sailwx.info

Track history (hours):
 
Tides and Currents Weather Stations Pressure Air Temp Water Temp Dewpoint Dewpoint Depression Visibility Wind Speed Wind Dir Waves Ship Positions

Tonic Sea

Last reported at 2016-Jul-02 02:33 UTC. Time now 2016-Jul-02 05:49 UTC.
Position N 37°21' E 004°57'.

Length 229 m; draft 7.8 m.

Type: Cargo ship. MMSI: 636015479.

Date/timePositionNaut miles runAvg speedWind from/ knotsBaromVisibWave heightAir tempDewpointWater temp
2016-Jul-02 02:33N 37°21' E 004°57'3310.9
2016-Jul-01 23:32N 37°24' E 005°38'24410.5
2016-Jul-01 00:20N 37°33' E 010°45'1010.4
2016-Jun-30 23:21N 37°30' E 010°58'910.7
2016-Jun-30 22:33N 37°28' E 011°08'1110.5
2016-Jun-30 21:32N 37°23' E 011°20'1010.3
2016-Jun-30 20:34N 37°19' E 011°31'10 9.9
2016-Jun-30 19:33N 37°13' E 011°42'1010.1
2016-Jun-30 18:34N 37°08' E 011°53'1110.6
2016-Jun-30 17:33N 37°04' E 012°05'1111.2
2016-Jun-30 16:34N 37°01' E 012°18'1110.8
2016-Jun-30 15:34N 36°57' E 012°31'1010.4
2016-Jun-30 14:33N 36°54' E 012°44'1110.7
2016-Jun-30 13:34N 36°51' E 012°56'1110.6
2016-Jun-30 12:34N 36°48' E 013°09'1010.1
2016-Jun-30 11:34N 36°45' E 013°21'1010.3
2016-Jun-30 10:34N 36°41' E 013°33'1010.5
2016-Jun-30 09:34N 36°38' E 013°45'1010.3
2016-Jun-30 08:34N 36°35' E 013°58'1010.3
2016-Jun-30 07:33N 36°32' E 014°10'1010.2
2016-Jun-30 06:34N 36°29' E 014°22'1110.6
2016-Jun-30 05:34N 36°26' E 014°35'3611.4
2016-Jun-30 02:24N 36°16' E 015°18'1313.0
2016-Jun-30 01:26N 36°17' E 015°33'1113.0
2016-Jun-30 00:34N 36°17' E 015°48'4013.0
2016-Jun-29 21:28N 36°18' E 016°37'1412.7
2016-Jun-29 20:23N 36°18' E 016°54'1112.8
2016-Jun-29 19:31N 36°18' E 017°08'1212.6
2016-Jun-29 18:33N 36°18' E 017°23'1312.6
2016-Jun-29 17:33N 36°19' E 017°39'1812.7
2016-Jun-29 16:07N 36°19' E 018°02'812.9
2016-Jun-29 15:30N 36°19' E 018°12'24311.9
2016-Jun-28 19:09N 36°24' E 023°13'711.5
2016-Jun-28 18:33N 36°29' E 023°20'1211.7
2016-Jun-28 17:33N 36°37' E 023°29'1211.5
2016-Jun-28 16:33N 36°46' E 023°38'1111.4
2016-Jun-28 15:33N 36°55' E 023°47'1111.4
2016-Jun-28 14:33N 37°04' E 023°56'1211.6
2016-Jun-28 13:33N 37°14' E 024°05'3612.1
2016-Jun-28 10:33N 37°43' E 024°31'1211.8
2016-Jun-28 09:33N 37°54' E 024°36'12012.0
2016-Jun-27 23:30N 39°44' E 025°40'1112.1
2016-Jun-27 22:33N 39°54' E 025°46'  
Track history (hours):
 
Tides and Currents Weather Stations Pressure Air Temp Water Temp Dewpoint Dewpoint Depression Visibility Wind Speed Wind Dir Waves Ship Positions

Tonic Sea

Last reported at 2016-Jul-02 02:33 UTC. Time now 2016-Jul-02 05:49 UTC.
Position N 37°21' E 004°57'.

Length 229 m; draft 7.8 m.

Type: Cargo ship. MMSI: 636015479.

Date/timePositionNaut miles runAvg speedWind from/ knotsBaromVisibWave heightAir tempDewpointWater temp
2016-Jul-02 02:33N 37°21' E 004°57'3310.9
2016-Jul-01 23:32N 37°24' E 005°38'24410.5
2016-Jul-01 00:20N 37°33' E 010°45'1010.4
2016-Jun-30 23:21N 37°30' E 010°58'910.7
2016-Jun-30 22:33N 37°28' E 011°08'1110.5
2016-Jun-30 21:32N 37°23' E 011°20'1010.3
2016-Jun-30 20:34N 37°19' E 011°31'10 9.9
2016-Jun-30 19:33N 37°13' E 011°42'1010.1
2016-Jun-30 18:34N 37°08' E 011°53'1110.6
2016-Jun-30 17:33N 37°04' E 012°05'1111.2
2016-Jun-30 16:34N 37°01' E 012°18'1110.8
2016-Jun-30 15:34N 36°57' E 012°31'1010.4
2016-Jun-30 14:33N 36°54' E 012°44'1110.7
2016-Jun-30 13:34N 36°51' E 012°56'1110.6
2016-Jun-30 12:34N 36°48' E 013°09'1010.1
2016-Jun-30 11:34N 36°45' E 013°21'1010.3
2016-Jun-30 10:34N 36°41' E 013°33'1010.5
2016-Jun-30 09:34N 36°38' E 013°45'1010.3
2016-Jun-30 08:34N 36°35' E 013°58'1010.3
2016-Jun-30 07:33N 36°32' E 014°10'1010.2
2016-Jun-30 06:34N 36°29' E 014°22'1110.6
2016-Jun-30 05:34N 36°26' E 014°35'3611.4
2016-Jun-30 02:24N 36°16' E 015°18'1313.0
2016-Jun-30 01:26N 36°17' E 015°33'1113.0
2016-Jun-30 00:34N 36°17' E 015°48'4013.0
2016-Jun-29 21:28N 36°18' E 016°37'1412.7
2016-Jun-29 20:23N 36°18' E 016°54'1112.8
2016-Jun-29 19:31N 36°18' E 017°08'1212.6
2016-Jun-29 18:33N 36°18' E 017°23'1312.6
2016-Jun-29 17:33N 36°19' E 017°39'1812.7
2016-Jun-29 16:07N 36°19' E 018°02'812.9
2016-Jun-29 15:30N 36°19' E 018°12'24311.9
2016-Jun-28 19:09N 36°24' E 023°13'711.5
2016-Jun-28 18:33N 36°29' E 023°20'1211.7
2016-Jun-28 17:33N 36°37' E 023°29'1211.5
2016-Jun-28 16:33N 36°46' E 023°38'1111.4
2016-Jun-28 15:33N 36°55' E 023°47'1111.4
2016-Jun-28 14:33N 37°04' E 023°56'1211.6
2016-Jun-28 13:33N 37°14' E 024°05'3612.1
2016-Jun-28 10:33N 37°43' E 024°31'1211.8
2016-Jun-28 09:33N 37°54' E 024°36'12012.0
2016-Jun-27 23:30N 39°44' E 025°40'1112.1
2016-Jun-27 22:33N 39°54' E 025°46'  

Dump ship's entire track history